Ely, NV

13:51 PST le 06 décembre 2016 (GMT -0800)
Ely | | Change Station

Alt. 6260 ft 39.30 °N, 114.85 °W | Updated 51 minutes ago

Clear
Ciel dégagé
38 ° F
Paraît 29 ° F
N
15
Vent Variable Vent de ONO
Gusts 26 mph

Aujourd'hui
Haut(e) -- | Bas -- ° F
--% Risque de précip.
Hier
Haut(e) -- | Bas -- ° F
Precip. -- pouce
Pression 29.70 pouce
Visibilité 10.0 Miles terrestres
Nuages Ciel dégagé
Refroidissement éolien 29 ° F
Point de rosée 5 ° F
Humidité 25%
Précipitations 0.00 pouce
Profondeur de la couche neigeuse Non disponible.
6:45 AM 4:15 PM
Lune montante, 45% visible
SPECI KELY 062100Z AUTO 29013G23KT 10SM CLR 03/M15 A2970 RMK AO2 WSHFT 2040 T00331150
Pression 29.70 pouce
Visibilité 10.0 Miles terrestres
Nuages Ciel dégagé
Refroidissement éolien 29 ° F
Point de rosée 5 ° F
Humidité 25%
Précipitations 0.00 pouce
Profondeur de la couche neigeuse Non disponible.
6:45 AM 4:15 PM
Lune montante, 45% visible
SPECI KELY 062100Z AUTO 29013G23KT 10SM CLR 03/M15 A2970 RMK AO2 WSHFT 2040 T00331150

10-Day Weather Forecast

Almanac

Astronomie

Dec. 06, 2016 Lever Coucher
Temps réel
Crépuscule civil
Crépuscule nautique
Crépuscule astronomique
Lune
Durée de lumière visible
Longueur du jour
Tomorrow will be .
, % of the Moon is Illuminated

Extrêmes aujourd'hui

State Highs State Lows

Community

WunderPhotos

Upload Photos

1,956,033 Photos téléchargées !

WunderBlog® & News

Nearby

Qualité de l'air

  Qualité de l'air Indice de la qualité de l'air Polluant
Not available.

Épaisseur de neige

Station Depth Altitude

Activité sismique

Ville Distance Mag. Time & Date
Minimum magnitude displayed is 2.5.

Températures des eaux côtières

Lieu Température

Stations

Stations météo à proximité

Emplacement de la station Température Refroidissement éolien Point de rosée Humidité Vent Precip. Alt. Mise à jour Type
                   

Watches & Warnings

There are currently no watches in effect.